Time;durP1;ratioP1;P1;durP2;ratioP2;P2;SDS_P1;SDS_P2;PMS_P1;PMS_P2;Temp;Humidity;BMP_temperature;BMP_pressure;BME280_temperature;BME280_humidity;BME280_pressure;Samples;Min_cycle;Max_cycle;Signal;HPM_P1;HPM_P2
2023/12/18 00:01:40;;;;;;;3.42;2.78;;;16.00;61.70;;;;;;5113525;28;20173;-65
2023/12/18 00:04:07;;;;;;;3.58;2.90;;;16.00;61.70;;;;;;5113199;28;20619;-65
2023/12/18 00:06:32;;;;;;;3.55;3.00;;;16.00;61.60;;;;;;5112213;28;20208;-66
2023/12/18 00:08:58;;;;;;;4.40;3.00;;;16.00;61.40;;;;;;5113080;28;20242;-66
2023/12/18 00:11:23;;;;;;;5.95;3.88;;;16.00;61.40;;;;;;5113038;28;20323;-66
2023/12/18 00:13:49;;;;;;;3.92;3.50;;;16.00;61.30;;;;;;5112676;28;20180;-66
2023/12/18 00:16:15;;;;;;;3.75;3.45;;;16.00;61.40;;;;;;5112828;28;20260;-65
2023/12/18 00:18:40;;;;;;;3.78;3.47;;;15.90;61.60;;;;;;5113158;28;20544;-65
2023/12/18 00:21:06;;;;;;;5.18;3.40;;;15.90;61.60;;;;;;5112355;28;20183;-66
2023/12/18 00:23:31;;;;;;;4.65;3.10;;;15.90;61.60;;;;;;5112617;28;20226;-66
2023/12/18 00:25:57;;;;;;;5.75;3.20;;;15.90;61.50;;;;;;5111948;28;20229;-66
2023/12/18 00:28:22;;;;;;;3.55;3.05;;;15.90;61.60;;;;;;5112596;28;20225;-66
2023/12/18 00:30:48;;;;;;;4.18;3.35;;;15.90;61.60;;;;;;5112736;28;20208;-65
2023/12/18 00:33:13;;;;;;;3.78;3.28;;;15.90;61.50;;;;;;5112047;28;20187;-66
2023/12/18 00:35:40;;;;;;;5.28;3.45;;;15.90;61.60;;;;;;5112947;28;20176;-66
2023/12/18 00:38:05;;;;;;;4.13;3.40;;;15.90;61.70;;;;;;5112856;28;20177;-66
2023/12/18 00:40:31;;;;;;;3.58;3.25;;;15.90;61.60;;;;;;5112103;28;20646;-66
2023/12/18 00:42:57;;;;;;;3.78;3.40;;;15.90;61.60;;;;;;5112905;28;20218;-65
2023/12/18 00:45:23;;;;;;;4.07;3.17;;;15.90;61.60;;;;;;5112498;28;20246;-66
2023/12/18 00:47:48;;;;;;;4.13;3.53;;;15.90;61.60;;;;;;5111869;28;20660;-66
2023/12/18 00:50:14;;;;;;;4.18;3.50;;;15.90;61.60;;;;;;5112136;28;20237;-66
2023/12/18 00:52:39;;;;;;;4.07;2.97;;;15.90;61.60;;;;;;5112517;28;20530;-66
2023/12/18 00:55:06;;;;;;;4.30;3.45;;;15.80;61.60;;;;;;5112116;28;20164;-66
2023/12/18 00:57:32;;;;;;;3.97;3.28;;;15.90;61.70;;;;;;5112384;28;20213;-66
2023/12/18 00:59:57;;;;;;;3.80;3.45;;;15.80;61.50;;;;;;5112663;28;20169;-65
2023/12/18 01:02:23;;;;;;;4.93;3.63;;;15.90;61.70;;;;;;5111595;28;20181;-65
2023/12/18 01:04:49;;;;;;;4.30;3.38;;;15.80;61.70;;;;;;5112597;28;20165;-65
2023/12/18 01:07:14;;;;;;;4.75;3.40;;;15.80;61.80;;;;;;5112062;28;20627;-66
2023/12/18 01:09:40;;;;;;;5.93;3.63;;;15.80;61.60;;;;;;5111682;28;20174;-66
2023/12/18 01:12:06;;;;;;;5.22;3.63;;;15.80;61.70;;;;;;5112626;28;20264;-66
2023/12/18 01:14:31;;;;;;;4.45;3.15;;;15.80;61.70;;;;;;5112120;28;20226;-65
2023/12/18 01:16:57;;;;;;;4.32;3.50;;;15.80;61.70;;;;;;5111872;28;20173;-64
2023/12/18 01:19:22;;;;;;;3.45;3.15;;;15.80;61.70;;;;;;5112150;28;20530;-65
2023/12/18 01:21:50;;;;;;;5.80;3.45;;;15.80;61.80;;;;;;5112242;28;20178;-65
2023/12/18 01:24:16;;;;;;;4.35;3.33;;;15.80;61.70;;;;;;5111519;28;20174;-66
2023/12/18 01:26:42;;;;;;;5.63;3.97;;;15.80;61.80;;;;;;5112289;28;20222;-65
2023/12/18 01:29:10;;;;;;;3.42;3.13;;;15.80;61.80;;;;;;5111702;28;20176;-66
2023/12/18 01:31:36;;;;;;;5.30;3.45;;;15.80;61.70;;;;;;5111942;28;20265;-66
2023/12/18 01:34:01;;;;;;;5.10;4.03;;;15.70;61.80;;;;;;5112262;28;20169;-66
2023/12/18 01:36:27;;;;;;;4.47;3.63;;;15.70;61.80;;;;;;5111380;28;20264;-65
2023/12/18 01:38:53;;;;;;;3.85;3.33;;;15.70;61.80;;;;;;5116242;28;20256;-65
2023/12/18 01:41:18;;;;;;;3.60;3.30;;;15.70;61.80;;;;;;5115914;28;20669;-66
2023/12/18 01:43:44;;;;;;;3.60;3.25;;;15.70;61.70;;;;;;5115400;28;20654;-66
2023/12/18 01:46:11;;;;;;;3.72;3.38;;;15.70;61.90;;;;;;5115191;28;20550;-66
2023/12/18 01:48:36;;;;;;;4.25;3.85;;;15.70;61.70;;;;;;5080609;28;20538;-66
2023/12/18 01:51:02;;;;;;;4.32;3.67;;;15.70;61.80;;;;;;5096707;28;20221;-66
2023/12/18 01:53:33;;;;;;;5.47;3.50;;;15.70;61.70;;;;;;5097403;28;20642;-66
2023/12/18 01:55:58;;;;;;;3.42;3.05;;;15.70;61.90;;;;;;5115899;28;20273;-66
2023/12/18 01:58:24;;;;;;;5.35;3.83;;;15.70;61.70;;;;;;5079811;28;20640;-65
2023/12/18 02:00:50;;;;;;;5.05;3.47;;;15.70;61.60;;;;;;5097400;28;20619;-65
2023/12/18 02:03:16;;;;;;;5.20;3.67;;;15.70;61.90;;;;;;5115411;28;20185;-65
2023/12/18 02:05:42;;;;;;;4.60;3.55;;;15.60;61.80;;;;;;5096640;28;20173;-65
2023/12/18 02:08:07;;;;;;;4.30;3.90;;;15.60;61.80;;;;;;5115525;28;20187;-66
2023/12/18 02:10:34;;;;;;;3.78;3.10;;;15.70;61.80;;;;;;5115074;28;20307;-66
2023/12/18 02:12:59;;;;;;;4.25;3.47;;;15.60;61.70;;;;;;5114824;28;20180;-65
2023/12/18 02:15:25;;;;;;;4.10;3.60;;;15.70;61.90;;;;;;5115143;28;20177;-65
2023/12/18 02:17:50;;;;;;;5.28;3.38;;;15.70;62.00;;;;;;5115320;28;20272;-65
2023/12/18 02:20:16;;;;;;;4.88;3.45;;;15.60;61.90;;;;;;5114246;28;20706;-65
2023/12/18 02:22:47;;;;;;;5.10;3.38;;;15.60;61.80;;;;;;5115474;28;20181;-65
2023/12/18 02:25:16;;;;;;;4.40;3.50;;;15.60;61.90;;;;;;5115344;28;20172;-65
2023/12/18 02:27:42;;;;;;;3.90;3.20;;;15.60;61.80;;;;;;5096834;28;20185;-65
2023/12/18 02:30:07;;;;;;;3.47;2.92;;;15.60;62.10;;;;;;5080041;28;20283;-65
2023/12/18 02:32:35;;;;;;;5.10;3.30;;;15.60;62.00;;;;;;5114091;28;20188;-65
2023/12/18 02:35:01;;;;;;;4.55;3.03;;;15.60;61.80;;;;;;5114944;28;20595;-66
2023/12/18 02:37:27;;;;;;;3.55;3.20;;;15.60;62.10;;;;;;5114889;28;20181;-65
2023/12/18 02:39:53;;;;;;;4.63;3.83;;;15.60;62.00;;;;;;5114374;28;20181;-66
2023/12/18 02:42:18;;;;;;;4.25;3.13;;;15.60;61.90;;;;;;5114745;28;20173;-66
2023/12/18 02:44:44;;;;;;;3.30;2.97;;;15.60;62.10;;;;;;5114813;28;20165;-65
2023/12/18 02:47:09;;;;;;;3.97;3.30;;;15.60;62.00;;;;;;5114156;28;20181;-66
2023/12/18 02:49:35;;;;;;;4.15;3.40;;;15.50;62.00;;;;;;5114157;28;20299;-66
2023/12/18 02:52:00;;;;;;;4.05;3.22;;;15.60;62.00;;;;;;5114781;28;20219;-66
2023/12/18 02:54:26;;;;;;;4.10;3.40;;;15.60;62.00;;;;;;5113773;28;20191;-66
2023/12/18 02:56:51;;;;;;;3.40;3.05;;;15.60;62.00;;;;;;5114688;28;20606;-65
2023/12/18 02:59:17;;;;;;;4.13;3.15;;;15.60;62.00;;;;;;5114161;28;20622;-66
2023/12/18 03:01:45;;;;;;;4.60;3.95;;;15.60;61.90;;;;;;5113753;28;20169;-65
2023/12/18 03:04:10;;;;;;;3.45;3.15;;;15.60;62.00;;;;;;5114283;28;20181;-65
2023/12/18 03:06:36;;;;;;;3.53;3.22;;;15.60;62.00;;;;;;5114348;28;20235;-66
2023/12/18 03:09:02;;;;;;;3.42;3.13;;;15.60;62.00;;;;;;5113734;28;20168;-66
2023/12/18 03:11:27;;;;;;;4.25;3.55;;;15.60;62.00;;;;;;5114085;28;20212;-66
2023/12/18 03:13:52;;;;;;;3.28;2.97;;;15.50;61.90;;;;;;5114208;28;20211;-66
2023/12/18 03:16:18;;;;;;;4.75;3.40;;;15.60;62.00;;;;;;5113205;28;20212;-65
2023/12/18 03:18:43;;;;;;;4.13;3.15;;;15.50;62.00;;;;;;5114070;28;20284;-65
2023/12/18 03:21:10;;;;;;;6.40;3.72;;;15.50;62.00;;;;;;5114270;28;20212;-65
2023/12/18 03:23:36;;;;;;;5.80;4.07;;;15.50;61.90;;;;;;5113003;28;20628;-65
2023/12/18 03:26:01;;;;;;;4.00;3.17;;;15.50;62.00;;;;;;5114123;28;20187;-66
2023/12/18 03:28:27;;;;;;;4.53;3.20;;;15.50;62.20;;;;;;5113731;28;20169;-66
2023/12/18 03:30:52;;;;;;;3.72;3.42;;;15.50;62.10;;;;;;5113124;28;20205;-66
2023/12/18 03:33:18;;;;;;;3.78;3.30;;;15.50;62.00;;;;;;5113544;28;20173;-66
2023/12/18 03:35:44;;;;;;;3.28;2.97;;;15.50;62.10;;;;;;5113330;28;20273;-66
2023/12/18 03:38:09;;;;;;;4.15;3.15;;;15.50;62.10;;;;;;5113771;28;20595;-66
2023/12/18 03:40:35;;;;;;;5.32;3.47;;;15.50;62.10;;;;;;5113506;28;20696;-66
2023/12/18 03:43:00;;;;;;;3.72;3.15;;;15.50;62.10;;;;;;5112926;28;20941;-66
2023/12/18 03:45:26;;;;;;;3.40;3.03;;;15.50;62.00;;;;;;5113334;28;20205;-66
2023/12/18 03:47:51;;;;;;;5.38;3.13;;;15.50;62.10;;;;;;5113592;28;20212;-66
2023/12/18 03:50:17;;;;;;;3.08;2.83;;;15.50;62.10;;;;;;5112572;28;20366;-65
2023/12/18 03:52:42;;;;;;;4.68;3.13;;;15.50;62.20;;;;;;5113758;28;20229;-65
2023/12/18 03:55:08;;;;;;;3.92;3.22;;;15.50;62.30;;;;;;5113511;28;20161;-65
2023/12/18 03:57:33;;;;;;;4.00;3.50;;;15.50;62.20;;;;;;5112497;28;20213;-65
2023/12/18 03:59:59;;;;;;;3.67;3.35;;;15.50;62.30;;;;;;5112873;28;20165;-65
2023/12/18 04:02:25;;;;;;;3.88;3.28;;;15.50;62.20;;;;;;5112985;28;20165;-64
2023/12/18 04:04:52;;;;;;;4.40;3.40;;;15.50;62.20;;;;;;5112587;28;20173;-64
2023/12/18 04:07:18;;;;;;;4.72;3.20;;;15.50;62.20;;;;;;5113142;28;20192;-65
2023/12/18 04:09:44;;;;;;;3.92;3.50;;;15.50;62.20;;;;;;5113069;28;20173;-65
2023/12/18 04:12:09;;;;;;;3.53;3.10;;;15.40;62.10;;;;;;5112483;28;20228;-64
2023/12/18 04:14:35;;;;;;;4.00;3.05;;;15.40;62.00;;;;;;5112860;28;20165;-64
2023/12/18 04:17:00;;;;;;;6.30;3.55;;;15.40;62.10;;;;;;5113008;28;20168;-64
2023/12/18 04:19:26;;;;;;;3.63;3.33;;;15.40;62.10;;;;;;5112305;28;20207;-64
2023/12/18 04:21:51;;;;;;;4.60;2.97;;;15.40;62.00;;;;;;5113105;28;20230;-64
2023/12/18 04:24:17;;;;;;;3.45;3.15;;;15.40;62.30;;;;;;5112783;28;20165;-64
2023/12/18 04:26:43;;;;;;;3.47;3.17;;;15.40;62.10;;;;;;5112331;28;20173;-65
2023/12/18 04:29:09;;;;;;;3.90;3.50;;;15.40;62.10;;;;;;5112870;28;20179;-64
2023/12/18 04:31:34;;;;;;;3.60;3.30;;;15.40;62.10;;;;;;5112481;28;20212;-65
2023/12/18 04:34:00;;;;;;;4.07;3.42;;;15.40;62.10;;;;;;5112270;28;20288;-65
2023/12/18 04:36:25;;;;;;;3.42;3.05;;;15.40;62.10;;;;;;5112469;28;20271;-65
2023/12/18 04:38:51;;;;;;;4.53;3.30;;;15.40;62.10;;;;;;5112724;28;20219;-65
2023/12/18 04:41:21;;;;;;;4.03;3.50;;;15.40;62.10;;;;;;5111665;28;20173;-64
2023/12/18 04:43:46;;;;;;;4.07;3.53;;;15.40;62.10;;;;;;5112745;28;20252;-65
2023/12/18 04:46:12;;;;;;;3.88;3.50;;;15.40;62.10;;;;;;5111938;28;20614;-65
2023/12/18 04:48:38;;;;;;;4.60;3.35;;;15.30;62.10;;;;;;5112532;28;20296;-65
2023/12/18 04:51:03;;;;;;;4.45;3.45;;;15.40;62.10;;;;;;5112475;28;20233;-65
2023/12/18 04:53:31;;;;;;;3.60;3.15;;;15.40;62.30;;;;;;5111693;28;20165;-65
2023/12/18 04:55:57;;;;;;;4.72;3.42;;;15.40;62.20;;;;;;5112652;28;20180;-65
2023/12/18 04:58:22;;;;;;;4.65;3.05;;;15.40;62.40;;;;;;5112306;28;20173;-64
2023/12/18 05:00:48;;;;;;;5.32;3.60;;;15.40;62.20;;;;;;5111718;28;20176;-64
2023/12/18 05:03:13;;;;;;;3.47;2.78;;;15.40;62.40;;;;;;5112643;28;20550;-65
2023/12/18 05:05:39;;;;;;;3.85;3.17;;;15.30;62.20;;;;;;5112637;28;20249;-65
2023/12/18 05:08:04;;;;;;;3.67;3.30;;;15.40;62.30;;;;;;5111852;28;20209;-65
2023/12/18 05:10:30;;;;;;;4.97;3.15;;;15.30;62.20;;;;;;5112106;28;20750;-65
2023/12/18 05:12:55;;;;;;;3.47;3.13;;;15.30;62.30;;;;;;5114902;28;20180;-64
2023/12/18 05:15:21;;;;;;;3.55;3.25;;;15.40;62.40;;;;;;5115524;28;20179;-65
2023/12/18 05:17:46;;;;;;;2.95;2.72;;;15.30;62.40;;;;;;5116706;28;20165;-65
2023/12/18 05:20:12;;;;;;;3.40;3.13;;;15.30;62.30;;;;;;5116622;28;20169;-65
2023/12/18 05:22:38;;;;;;;3.05;2.70;;;15.30;62.30;;;;;;5115562;28;20290;-65
2023/12/18 05:25:04;;;;;;;4.30;3.20;;;15.30;62.40;;;;;;5116534;28;20196;-65
2023/12/18 05:27:30;;;;;;;3.65;2.92;;;15.30;62.30;;;;;;5097811;28;20173;-66
2023/12/18 05:29:55;;;;;;;2.97;2.60;;;15.30;62.40;;;;;;5115500;28;20181;-66
2023/12/18 05:32:21;;;;;;;5.15;3.05;;;15.30;62.30;;;;;;5116149;28;20184;-66
2023/12/18 05:34:48;;;;;;;3.45;3.15;;;15.30;63.20;;;;;;5116374;28;20259;-65
2023/12/18 05:37:13;;;;;;;3.53;3.22;;;15.30;62.50;;;;;;5115477;28;20177;-66
2023/12/18 05:39:39;;;;;;;5.25;3.15;;;15.30;62.50;;;;;;5116098;28;20542;-66
2023/12/18 05:42:04;;;;;;;3.38;3.08;;;15.30;62.40;;;;;;5115937;28;20619;-67
2023/12/18 05:44:30;;;;;;;3.25;2.88;;;15.30;62.50;;;;;;5115078;28;20177;-66
2023/12/18 05:46:58;;;;;;;3.95;3.20;;;15.30;62.50;;;;;;5116283;28;20173;-66
2023/12/18 05:49:24;;;;;;;4.32;3.33;;;15.30;62.40;;;;;;5115174;28;20200;-66
2023/12/18 05:51:49;;;;;;;3.28;3.00;;;15.30;62.40;;;;;;5115622;28;20252;-66
2023/12/18 05:54:15;;;;;;;3.08;2.88;;;15.30;62.40;;;;;;5115574;28;20188;-66
2023/12/18 05:56:40;;;;;;;3.17;2.88;;;15.20;62.40;;;;;;5115030;28;20544;-65
2023/12/18 05:59:06;;;;;;;6.40;3.20;;;15.20;62.30;;;;;;5115591;28;20576;-64
2023/12/18 06:01:31;;;;;;;3.25;2.95;;;15.20;62.30;;;;;;5115281;28;20843;-64
2023/12/18 06:03:57;;;;;;;5.10;3.40;;;15.30;62.50;;;;;;5114817;28;20302;-64
2023/12/18 06:06:22;;;;;;;3.45;3.15;;;15.20;62.50;;;;;;5115348;28;20263;-65
2023/12/18 06:08:48;;;;;;;3.20;2.90;;;15.20;62.50;;;;;;5115602;28;20264;-66
2023/12/18 06:11:15;;;;;;;3.70;3.30;;;15.30;62.60;;;;;;5114409;28;20291;-66
2023/12/18 06:13:41;;;;;;;3.15;2.90;;;15.30;62.40;;;;;;5115348;28;20322;-65
2023/12/18 06:16:06;;;;;;;3.30;3.00;;;15.30;62.40;;;;;;5115610;28;20639;-65
2023/12/18 06:18:32;;;;;;;3.15;2.85;;;15.40;62.30;;;;;;5114487;28;20177;-64
2023/12/18 06:21:02;;;;;;;3.25;2.92;;;15.40;62.20;;;;;;5115456;28;20173;-64
2023/12/18 06:23:28;;;;;;;4.95;3.45;;;15.40;62.10;;;;;;5114404;28;20551;-65
2023/12/18 06:25:53;;;;;;;4.20;2.90;;;15.40;62.10;;;;;;5114490;28;20173;-65
2023/12/18 06:28:19;;;;;;;4.18;2.80;;;15.40;62.10;;;;;;5114758;28;20173;-65
2023/12/18 06:30:44;;;;;;;3.42;3.08;;;15.40;62.20;;;;;;5115166;28;20295;-64
2023/12/18 06:33:10;;;;;;;3.42;3.10;;;15.40;62.20;;;;;;5114486;28;20271;-65
2023/12/18 06:35:35;;;;;;;3.03;2.72;;;15.40;62.30;;;;;;5114989;28;20256;-65
2023/12/18 06:38:01;;;;;;;4.10;3.13;;;15.40;62.40;;;;;;5115008;28;20260;-65
2023/12/18 06:40:26;;;;;;;4.10;3.05;;;15.40;62.40;;;;;;5113997;28;20179;-65
2023/12/18 06:42:52;;;;;;;3.92;3.30;;;15.40;62.40;;;;;;5114869;28;20681;-65
2023/12/18 06:45:17;;;;;;;5.72;3.58;;;15.40;62.40;;;;;;5114464;28;20749;-65
2023/12/18 06:47:43;;;;;;;3.15;2.72;;;15.40;62.40;;;;;;5114020;28;20173;-65
2023/12/18 06:50:08;;;;;;;3.33;2.90;;;15.30;62.30;;;;;;5114403;28;20343;-65
2023/12/18 06:52:34;;;;;;;3.20;2.97;;;15.40;62.40;;;;;;5114413;28;20325;-65
2023/12/18 06:55:00;;;;;;;3.45;3.15;;;15.40;62.40;;;;;;5114192;28;20259;-64
2023/12/18 06:57:25;;;;;;;3.17;2.88;;;15.40;62.40;;;;;;5114343;28;20627;-65
2023/12/18 06:59:51;;;;;;;4.20;3.08;;;15.40;62.40;;;;;;5113987;28;20233;-65
2023/12/18 07:02:16;;;;;;;3.40;3.13;;;15.40;62.40;;;;;;5114150;28;20640;-64
2023/12/18 07:04:42;;;;;;;3.67;2.88;;;15.30;62.30;;;;;;5114424;28;20181;-64
2023/12/18 07:07:08;;;;;;;4.00;3.53;;;15.40;62.50;;;;;;5113619;28;20263;-65
2023/12/18 07:09:33;;;;;;;3.70;3.28;;;15.40;62.40;;;;;;5114149;28;20571;-66
2023/12/18 07:11:59;;;;;;;3.72;3.28;;;15.40;62.40;;;;;;5114175;28;20205;-65
2023/12/18 07:14:24;;;;;;;4.13;3.28;;;15.40;62.50;;;;;;5113409;28;20538;-65
2023/12/18 07:16:52;;;;;;;3.70;3.40;;;15.40;62.40;;;;;;5114284;28;20177;-64
2023/12/18 07:19:18;;;;;;;3.10;2.72;;;15.40;62.50;;;;;;5114011;28;20196;-64
2023/12/18 07:21:44;;;;;;;3.72;2.90;;;15.50;62.60;;;;;;5113533;28;20204;-64
2023/12/18 07:24:09;;;;;;;3.13;2.83;;;15.60;62.50;;;;;;5113987;28;20169;-65
2023/12/18 07:26:35;;;;;;;5.10;3.00;;;15.70;62.50;;;;;;5113698;28;20600;-65
2023/12/18 07:29:00;;;;;;;3.58;2.80;;;15.80;62.20;;;;;;5113472;28;20679;-65
2023/12/18 07:31:26;;;;;;;3.38;2.72;;;16.00;62.10;;;;;;5113472;28;20713;-66
2023/12/18 07:33:51;;;;;;;3.97;3.17;;;16.10;61.60;;;;;;5113672;28;20213;-65
2023/12/18 07:36:17;;;;;;;5.72;3.40;;;16.30;61.20;;;;;;5112275;28;20260;-65
2023/12/18 07:38:42;;;;;;;3.38;3.08;;;16.50;61.00;;;;;;5113819;28;20704;-65
2023/12/18 07:41:08;;;;;;;7.03;3.20;;;16.60;60.60;;;;;;5113789;28;20631;-66
2023/12/18 07:43:33;;;;;;;3.83;2.55;;;16.80;60.40;;;;;;5112779;28;20189;-66
2023/12/18 07:45:59;;;;;;;3.33;2.53;;;16.90;60.20;;;;;;5113934;28;20176;-68
2023/12/18 07:48:24;;;;;;;5.82;3.05;;;16.90;60.00;;;;;;5113115;28;20165;-66
2023/12/18 07:50:50;;;;;;;3.67;2.45;;;17.00;59.80;;;;;;5112314;28;20240;-65
2023/12/18 07:53:16;;;;;;;3.50;2.83;;;17.10;59.70;;;;;;5113250;28;20217;-64
2023/12/18 07:55:42;;;;;;;5.80;3.03;;;17.20;59.60;;;;;;5113306;28;20220;-67
2023/12/18 07:58:07;;;;;;;4.80;2.92;;;17.30;59.50;;;;;;5112495;28;20215;-66
2023/12/18 08:00:33;;;;;;;6.28;2.88;;;17.40;59.50;;;;;;5113034;28;20199;-65
2023/12/18 08:03:01;;;;;;;7.40;2.67;;;17.40;59.40;;;;;;5112418;28;20566;-65
2023/12/18 08:05:28;;;;;;;4.28;3.20;;;17.40;59.40;;;;;;5112830;28;20643;-66
2023/12/18 08:07:53;;;;;;;5.25;2.67;;;17.40;59.40;;;;;;5113112;28;20177;-66
2023/12/18 08:10:19;;;;;;;4.22;2.60;;;17.30;59.50;;;;;;5111867;28;20806;-66
2023/12/18 08:12:44;;;;;;;3.28;2.50;;;17.30;59.50;;;;;;5113217;28;20185;-66
2023/12/18 08:15:10;;;;;;;3.85;2.70;;;17.40;60.20;;;;;;5113077;28;20161;-66
2023/12/18 08:17:39;;;;;;;5.05;2.65;;;17.40;59.40;;;;;;5112164;28;20177;-65
2023/12/18 08:20:06;;;;;;;3.55;2.47;;;17.40;59.40;;;;;;5112931;28;20173;-65
2023/12/18 08:22:32;;;;;;;4.18;2.90;;;17.40;59.50;;;;;;5094501;28;20189;-66
2023/12/18 08:24:58;;;;;;;3.47;2.70;;;17.40;59.40;;;;;;5112213;28;20572;-67
2023/12/18 08:27:23;;;;;;;4.40;2.90;;;17.40;59.60;;;;;;5112618;28;20176;-65
2023/12/18 08:29:49;;;;;;;7.57;3.20;;;17.40;59.60;;;;;;5112809;28;20311;-64
2023/12/18 08:32:14;;;;;;;4.07;2.85;;;17.30;59.70;;;;;;5111761;28;20299;-64
2023/12/18 08:34:40;;;;;;;4.20;2.70;;;17.30;59.70;;;;;;5112848;28;20181;-65
2023/12/18 08:37:06;;;;;;;7.95;3.28;;;17.30;59.70;;;;;;5112755;28;20188;-64
2023/12/18 08:39:32;;;;;;;4.88;2.78;;;17.30;59.60;;;;;;5111725;28;20180;-65
2023/12/18 08:41:57;;;;;;;4.18;3.17;;;17.30;59.70;;;;;;5112369;28;20665;-65
2023/12/18 08:44:23;;;;;;;4.93;3.10;;;17.30;59.60;;;;;;5112368;28;20173;-64
2023/12/18 08:46:48;;;;;;;4.97;2.92;;;17.30;59.60;;;;;;5111900;28;20268;-65
2023/12/18 08:49:14;;;;;;;6.88;2.85;;;17.30;59.70;;;;;;5112367;28;20554;-65
2023/12/18 08:51:39;;;;;;;4.28;2.97;;;17.30;59.70;;;;;;5112376;28;20243;-65
2023/12/18 08:54:05;;;;;;;3.85;2.70;;;17.30;59.70;;;;;;5111861;28;20168;-65
2023/12/18 08:56:32;;;;;;;5.72;2.50;;;17.30;59.70;;;;;;5112562;28;20196;-65
2023/12/18 08:59:00;;;;;;;4.13;2.85;;;17.30;59.70;;;;;;5112700;28;20192;-64
2023/12/18 09:01:26;;;;;;;3.67;2.90;;;17.30;60.40;;;;;;5111662;28;20226;-66
2023/12/18 09:03:51;;;;;;;3.70;3.30;;;17.30;59.70;;;;;;5112573;28;20165;-64
2023/12/18 09:06:17;;;;;;;5.00;2.65;;;17.30;59.70;;;;;;5111580;28;20173;-65
2023/12/18 09:08:42;;;;;;;4.38;2.80;;;17.30;59.70;;;;;;5112392;28;20169;-65
2023/12/18 09:11:08;;;;;;;4.50;2.72;;;17.30;59.70;;;;;;5112604;28;20212;-65
2023/12/18 09:13:37;;;;;;;5.47;2.88;;;17.30;59.70;;;;;;5111358;28;20173;-64
2023/12/18 09:16:03;;;;;;;4.63;3.13;;;17.30;59.80;;;;;;5112290;28;20655;-65
2023/12/18 09:18:29;;;;;;;3.20;2.75;;;17.30;59.80;;;;;;5112092;28;20176;-64
2023/12/18 09:20:54;;;;;;;3.95;2.35;;;17.30;59.90;;;;;;5111605;28;20218;-64
2023/12/18 09:23:20;;;;;;;4.05;2.83;;;17.30;59.90;;;;;;5112043;28;20599;-64
2023/12/18 09:25:45;;;;;;;4.05;2.70;;;17.30;59.80;;;;;;5112531;28;20181;-64
2023/12/18 09:28:11;;;;;;;3.88;2.55;;;17.30;59.80;;;;;;5111760;28;20230;-65
2023/12/18 09:30:36;;;;;;;5.00;2.50;;;17.30;59.90;;;;;;5112043;28;20231;-64
2023/12/18 09:33:02;;;;;;;6.25;2.95;;;17.30;59.90;;;;;;5112370;28;20260;-64
2023/12/18 09:35:27;;;;;;;3.30;2.53;;;17.30;59.90;;;;;;5111271;28;20654;-65
2023/12/18 09:37:53;;;;;;;4.30;2.92;;;17.30;59.90;;;;;;5112198;28;20174;-65
2023/12/18 09:40:18;;;;;;;4.22;2.70;;;17.30;59.90;;;;;;5112113;28;20184;-64
2023/12/18 09:42:54;;;;;;;4.97;3.03;;;17.30;59.90;;;;;;5111751;28;20174;-64
2023/12/18 09:45:22;;;;;;;3.72;3.05;;;17.20;59.80;;;;;;5111999;28;20539;-65
2023/12/18 09:47:48;;;;;;;3.42;2.45;;;17.20;60.00;;;;;;5112162;28;20180;-64
2023/12/18 09:50:13;;;;;;;3.97;2.85;;;17.10;60.00;;;;;;5092808;28;20221;-64
2023/12/18 09:52:41;;;;;;;2.72;2.30;;;17.10;60.10;;;;;;5112238;28;20229;-65
2023/12/18 09:55:06;;;;;;;5.25;2.83;;;17.00;60.30;;;;;;5077481;28;20176;-64
2023/12/18 09:57:32;;;;;;;5.75;3.08;;;17.00;60.30;;;;;;5092849;28;20173;-64
2023/12/18 09:59:58;;;;;;;5.75;3.33;;;17.00;60.40;;;;;;5097672;28;20180;-64
2023/12/18 10:02:23;;;;;;;3.75;3.25;;;17.00;60.50;;;;;;5115332;28;20256;-64
2023/12/18 10:04:49;;;;;;;3.00;2.70;;;17.00;60.50;;;;;;5079886;28;20176;-64
2023/12/18 10:07:14;;;;;;;5.90;3.30;;;16.90;60.40;;;;;;5115462;28;20256;-64
2023/12/18 10:09:40;;;;;;;4.25;2.72;;;16.90;60.50;;;;;;5114866;28;20260;-65
2023/12/18 10:12:06;;;;;;;3.08;2.72;;;16.90;60.50;;;;;;5115376;28;20216;-65
2023/12/18 10:14:31;;;;;;;3.83;2.90;;;16.80;60.60;;;;;;5096941;28;20169;-64
2023/12/18 10:16:57;;;;;;;4.50;2.92;;;16.80;60.70;;;;;;5096468;28;20206;-64
2023/12/18 10:19:27;;;;;;;4.45;3.15;;;16.70;60.80;;;;;;5115024;28;20169;-64
2023/12/18 10:21:53;;;;;;;2.90;2.60;;;16.70;60.90;;;;;;5115521;28;20173;-64
2023/12/18 10:24:19;;;;;;;5.93;2.78;;;16.70;61.00;;;;;;5114522;28;20177;-64
2023/12/18 10:26:47;;;;;;;4.22;2.88;;;16.70;61.00;;;;;;5115321;28;20244;-64
2023/12/18 10:29:13;;;;;;;3.60;2.50;;;16.80;61.00;;;;;;5115283;28;20271;-65
2023/12/18 10:31:38;;;;;;;2.90;2.53;;;16.80;60.90;;;;;;5114318;28;20667;-64
2023/12/18 10:34:05;;;;;;;5.03;3.08;;;16.80;60.80;;;;;;5096926;28;20179;-64
2023/12/18 10:36:32;;;;;;;3.10;2.75;;;16.80;60.80;;;;;;5096902;28;20177;-65
2023/12/18 10:38:57;;;;;;;2.70;2.47;;;16.80;60.80;;;;;;5096320;28;20632;-64
2023/12/18 10:41:24;;;;;;;3.50;2.83;;;16.70;60.80;;;;;;5079611;28;20193;-64
2023/12/18 10:43:49;;;;;;;4.50;3.05;;;16.70;60.90;;;;;;5096823;28;20230;-65
2023/12/18 10:46:15;;;;;;;3.13;2.83;;;16.70;60.90;;;;;;5113906;28;20173;-64
2023/12/18 10:48:43;;;;;;;5.03;3.20;;;16.60;61.00;;;;;;5114746;28;20199;-64
2023/12/18 10:51:10;;;;;;;3.38;3.00;;;16.60;61.10;;;;;;5096782;28;20243;-64
2023/12/18 10:53:37;;;;;;;3.38;3.08;;;16.60;61.20;;;;;;5113831;28;20184;-65
2023/12/18 10:56:04;;;;;;;5.65;3.00;;;16.60;61.10;;;;;;5096585;28;20302;-65
2023/12/18 10:58:30;;;;;;;4.30;3.00;;;16.70;61.10;;;;;;5096401;28;20181;-65
2023/12/18 11:00:55;;;;;;;5.63;3.60;;;16.70;60.90;;;;;;5078865;28;20252;-64
2023/12/18 11:03:26;;;;;;;3.83;2.70;;;16.70;60.90;;;;;;5095960;28;20741;-65
2023/12/18 11:05:54;;;;;;;3.50;3.10;;;16.70;60.90;;;;;;5096588;28;20540;-65
2023/12/18 11:08:20;;;;;;;3.63;3.13;;;16.70;60.90;;;;;;5096454;28;20638;-65
2023/12/18 11:10:45;;;;;;;4.20;2.85;;;16.60;60.80;;;;;;5114286;28;20710;-65
2023/12/18 11:13:20;;;;;;;3.45;2.78;;;16.60;60.80;;;;;;5078748;28;20233;-65
2023/12/18 11:16:10;;;;;;;4.35;3.00;;;16.60;60.90;;;;;;5096132;28;20172;-65
2023/12/18 11:18:58;;;;;;;6.30;3.10;;;16.60;61.00;;;;;;5113874;28;20197;-64
2023/12/18 11:21:24;;;;;;;3.42;2.70;;;16.60;61.00;;;;;;5113283;28;20201;-65
2023/12/18 11:23:52;;;;;;;5.47;3.22;;;16.60;61.00;;;;;;5114096;28;20197;-65
2023/12/18 11:26:18;;;;;;;4.50;3.20;;;16.60;61.00;;;;;;5096084;28;20610;-65
2023/12/18 11:28:47;;;;;;;5.55;3.60;;;16.60;61.00;;;;;;5113546;28;20620;-64
2023/12/18 11:31:20;;;;;;;4.38;3.20;;;16.60;61.00;;;;;;5114047;28;20209;-65
2023/12/18 11:34:11;;;;;;;4.47;3.05;;;16.60;61.00;;;;;;5113993;28;20184;-66
2023/12/18 11:36:37;;;;;;;4.68;3.38;;;16.60;60.90;;;;;;5108766;28;20176;-66
2023/12/18 11:39:03;;;;;;;6.13;3.60;;;16.50;61.00;;;;;;5114073;28;20238;-67
2023/12/18 11:41:41;;;;;;;4.55;3.05;;;16.50;61.20;;;;;;5113010;28;20177;-66
2023/12/18 11:44:08;;;;;;;3.67;3.22;;;16.50;61.20;;;;;;5113899;28;20185;-66
2023/12/18 11:46:33;;;;;;;4.55;3.28;;;16.50;61.20;;;;;;5113475;28;20177;-66
2023/12/18 11:49:02;;;;;;;3.50;3.15;;;16.50;61.30;;;;;;5112899;28;20180;-66
2023/12/18 11:51:29;;;;;;;4.25;2.80;;;16.50;61.30;;;;;;5095054;28;20235;-66
2023/12/18 11:53:59;;;;;;;3.00;2.70;;;16.50;61.20;;;;;;5113692;28;20195;-66
2023/12/18 11:56:24;;;;;;;3.75;2.90;;;16.50;61.20;;;;;;5112661;28;20214;-66
2023/12/18 11:58:50;;;;;;;4.50;3.20;;;16.50;61.10;;;;;;5078279;28;20262;-66
2023/12/18 12:01:15;;;;;;;4.18;3.38;;;16.50;61.10;;;;;;5094970;28;20183;-65
2023/12/18 12:03:41;;;;;;;3.38;3.08;;;16.50;61.10;;;;;;5094484;28;20161;-65
2023/12/18 12:06:07;;;;;;;3.40;3.10;;;16.50;61.10;;;;;;5113524;28;20180;-66
2023/12/18 12:08:32;;;;;;;4.30;3.05;;;16.50;61.20;;;;;;5078150;28;20689;-66
2023/12/18 12:11:00;;;;;;;3.58;3.28;;;16.50;61.20;;;;;;5112587;28;20224;-66
2023/12/18 12:13:27;;;;;;;4.03;2.83;;;16.40;61.30;;;;;;5095148;28;20180;-66
2023/12/18 12:15:59;;;;;;;5.22;3.40;;;16.40;61.40;;;;;;5113084;28;20178;-66
2023/12/18 12:18:33;;;;;;;6.55;4.13;;;16.40;61.30;;;;;;5112084;28;20176;-66
2023/12/18 12:20:59;;;;;;;3.97;3.08;;;16.40;61.10;;;;;;5112705;28;20647;-66
2023/12/18 12:23:25;;;;;;;3.70;3.30;;;16.40;61.10;;;;;;5111920;28;20172;-66
2023/12/18 12:25:51;;;;;;;4.28;3.50;;;16.50;61.10;;;;;;5113096;28;20177;-66
2023/12/18 12:28:17;;;;;;;5.50;3.15;;;16.50;61.00;;;;;;5094431;28;20188;-66
2023/12/18 12:30:43;;;;;;;5.00;3.83;;;16.50;61.00;;;;;;5112056;28;20218;-66
2023/12/18 12:33:09;;;;;;;3.67;3.15;;;16.50;61.10;;;;;;5113081;28;20169;-66
2023/12/18 12:35:35;;;;;;;4.68;3.17;;;16.40;61.10;;;;;;5112654;28;20177;-66
2023/12/18 12:38:02;;;;;;;5.30;3.42;;;16.40;61.10;;;;;;5112111;28;20184;-67
2023/12/18 12:40:44;;;;;;;4.25;3.60;;;16.40;61.20;;;;;;5094414;28;20188;-65
2023/12/18 12:43:10;;;;;;;3.28;2.90;;;16.40;61.10;;;;;;5112772;28;20226;-64